Time;durP1;ratioP1;P1;durP2;ratioP2;P2;SDS_P1;SDS_P2;PMS_P1;PMS_P2;Temp;Humidity;BMP_temperature;BMP_pressure;BME280_temperature;BME280_humidity;BME280_pressure;Samples;Min_cycle;Max_cycle;Signal;HPM_P1;HPM_P2
2020/12/11 00:00:06;;;;;;;27.30;16.55;;;-0.70;98.00;;;;;;5046049;28;20024;-70
2020/12/11 00:02:38;;;;;;;22.70;16.30;;;-0.70;98.00;;;;;;5054154;28;20045;-70
2020/12/11 00:05:03;;;;;;;25.35;16.23;;;-0.60;98.00;;;;;;5056783;28;20385;-70
2020/12/11 00:07:32;;;;;;;22.02;15.80;;;-0.70;98.00;;;;;;5055368;28;20041;-70
2020/12/11 00:09:58;;;;;;;27.25;16.88;;;-0.70;98.00;;;;;;5041383;28;20025;-68
2020/12/11 00:12:26;;;;;;;30.15;19.90;;;-0.70;98.00;;;;;;5037766;28;20430;-68
2020/12/11 00:14:52;;;;;;;26.90;17.05;;;-0.80;98.00;;;;;;5060849;28;20295;-68
2020/12/11 00:17:18;;;;;;;37.20;21.55;;;-0.80;98.00;;;;;;5057870;28;20032;-68
2020/12/11 00:19:44;;;;;;;25.02;17.38;;;-0.80;98.00;;;;;;5036804;28;20056;-69
2020/12/11 00:22:14;;;;;;;28.80;17.17;;;-0.80;98.00;;;;;;5037368;28;20033;-69
2020/12/11 00:24:41;;;;;;;23.52;16.92;;;-0.80;98.00;;;;;;5033939;28;20091;-70
2020/12/11 00:27:07;;;;;;;25.85;17.02;;;-0.90;98.00;;;;;;5065480;28;20025;-69
2020/12/11 00:29:35;;;;;;;26.40;17.20;;;-1.00;98.00;;;;;;5029941;28;20414;-69
2020/12/11 00:32:04;;;;;;;31.58;18.13;;;-1.00;98.00;;;;;;5033700;28;20025;-70
2020/12/11 00:34:34;;;;;;;24.88;17.90;;;-1.10;98.00;;;;;;5028253;28;20367;-70
2020/12/11 00:37:00;;;;;;;28.10;17.60;;;-1.30;98.00;;;;;;5035070;28;20453;-69
2020/12/11 00:39:26;;;;;;;27.10;18.17;;;-1.40;98.00;;;;;;5021286;28;20064;-68
2020/12/11 00:41:54;;;;;;;26.55;17.63;;;-1.40;98.00;;;;;;5057206;28;20071;-70
2020/12/11 00:44:20;;;;;;;27.98;18.30;;;-1.60;98.00;;;;;;5035224;28;20345;-70
2020/12/11 00:46:46;;;;;;;27.13;18.85;;;-1.80;98.00;;;;;;5026524;28;20377;-69
2020/12/11 00:49:12;;;;;;;26.42;18.70;;;-1.90;98.00;;;;;;5025934;28;20176;-69
2020/12/11 00:51:37;;;;;;;25.27;18.63;;;-2.00;98.00;;;;;;5035706;28;20057;-69
2020/12/11 00:54:03;;;;;;;26.40;18.00;;;-2.10;98.00;;;;;;5045985;28;20060;-68
2020/12/11 00:56:29;;;;;;;29.40;19.17;;;-2.40;98.00;;;;;;5052802;28;20013;-70
2020/12/11 00:58:54;;;;;;;30.50;19.83;;;-2.60;98.00;;;;;;5047077;28;20026;-70
2020/12/11 01:01:20;;;;;;;28.33;19.48;;;-2.70;98.00;;;;;;5064706;28;20029;-71
2020/12/11 01:03:46;;;;;;;31.58;19.65;;;-2.60;98.00;;;;;;5041862;28;20035;-70
2020/12/11 01:06:12;;;;;;;32.50;20.70;;;-2.60;98.00;;;;;;5052912;28;20040;-70
2020/12/11 01:08:38;;;;;;;30.45;20.65;;;-2.40;98.00;;;;;;5040129;28;20033;-68
2020/12/11 01:11:03;;;;;;;30.27;19.27;;;-2.40;98.00;;;;;;5044729;28;20032;-69
2020/12/11 01:13:29;;;;;;;28.77;20.20;;;-2.40;98.00;;;;;;5050154;28;20048;-70
2020/12/11 01:15:54;;;;;;;31.10;20.92;;;-2.80;98.00;;;;;;5044502;28;20027;-70
2020/12/11 01:18:20;;;;;;;26.75;18.60;;;-3.00;98.00;;;;;;5035589;28;20029;-69
2020/12/11 01:20:46;;;;;;;33.53;21.25;;;-3.10;98.00;;;;;;5036725;28;20087;-69
2020/12/11 01:23:12;;;;;;;33.75;21.55;;;-3.00;98.00;;;;;;5038580;28;20414;-70
2020/12/11 01:25:37;;;;;;;35.50;22.10;;;-2.90;98.00;;;;;;5037099;28;20578;-69
2020/12/11 01:28:04;;;;;;;31.67;20.95;;;-2.90;98.00;;;;;;5042234;28;20101;-68
2020/12/11 01:30:30;;;;;;;33.90;20.92;;;-3.00;98.00;;;;;;5046728;28;20222;-69
2020/12/11 01:32:56;;;;;;;33.92;21.48;;;-3.00;98.00;;;;;;5046351;28;20032;-69
2020/12/11 01:35:21;;;;;;;29.40;19.85;;;-3.00;98.00;;;;;;5042274;28;20017;-69
2020/12/11 01:37:47;;;;;;;33.72;20.77;;;-3.10;98.00;;;;;;5032849;28;20034;-70
2020/12/11 01:40:12;;;;;;;35.22;21.50;;;-3.10;98.00;;;;;;5042957;28;20017;-70
2020/12/11 01:42:38;;;;;;;31.48;20.45;;;-3.00;98.00;;;;;;5046386;28;20326;-70
2020/12/11 01:45:04;;;;;;;38.20;21.30;;;-3.10;98.00;;;;;;5052147;28;20415;-69
2020/12/11 01:47:30;;;;;;;33.63;21.73;;;-3.10;98.00;;;;;;5047437;28;20045;-68
2020/12/11 01:49:56;;;;;;;32.17;20.40;;;-3.10;98.00;;;;;;5035931;28;20029;-69
2020/12/11 01:52:22;;;;;;;36.42;21.38;;;-3.10;98.00;;;;;;5045090;28;20022;-69
2020/12/11 01:54:48;;;;;;;32.15;21.23;;;-3.10;98.00;;;;;;5035107;28;20450;-70
2020/12/11 01:57:21;;;;;;;30.48;20.20;;;-3.20;98.00;;;;;;5043288;28;20314;-69
2020/12/11 01:59:50;;;;;;;;;;;-3.10;98.00;;;;;;5052153;28;20036;-69
2020/12/11 02:02:18;;;;;;;34.60;21.70;;;-3.00;98.00;;;;;;5041287;28;19940;-69
2020/12/11 02:04:44;;;;;;;37.15;20.10;;;-2.90;98.00;;;;;;5048664;28;20035;-69
2020/12/11 02:07:10;;;;;;;35.42;21.52;;;-2.80;98.00;;;;;;5050903;28;20103;-70
2020/12/11 02:09:38;;;;;;;32.55;20.02;;;-2.70;98.00;;;;;;5045566;28;20025;-69
2020/12/11 02:12:04;;;;;;;37.10;21.60;;;-2.60;98.00;;;;;;5048401;28;20044;-69
2020/12/11 02:14:31;;;;;;;31.00;20.30;;;-2.50;98.00;;;;;;5046234;28;20132;-68
2020/12/11 02:17:05;;;;;;;33.90;21.33;;;-2.50;98.00;;;;;;5033857;28;20743;-68
2020/12/11 02:19:35;;;;;;;31.58;19.50;;;-2.60;98.00;;;;;;5034977;28;20072;-69
2020/12/11 02:22:02;;;;;;;28.10;17.98;;;-2.60;98.00;;;;;;5047398;28;20030;-70
2020/12/11 02:24:28;;;;;;;35.35;22.15;;;-2.60;98.00;;;;;;5034742;28;20029;-69
2020/12/11 02:26:58;;;;;;;28.35;18.17;;;-2.60;98.00;;;;;;5042077;28;20495;-70
2020/12/11 02:29:25;;;;;;;30.77;18.77;;;-2.60;98.00;;;;;;5051437;28;20409;-69
2020/12/11 02:31:51;;;;;;;29.92;20.10;;;-2.70;98.00;;;;;;5050408;28;20452;-69
2020/12/11 02:34:21;;;;;;;31.80;18.80;;;-2.90;98.00;;;;;;5038007;28;20025;-69
2020/12/11 02:36:47;;;;;;;31.65;19.98;;;-3.00;98.00;;;;;;5036258;28;20027;-69
2020/12/11 02:39:14;;;;;;;28.92;19.33;;;-3.10;98.00;;;;;;5042075;28;20084;-70
2020/12/11 02:41:40;;;;;;;32.33;19.98;;;-3.20;98.00;;;;;;5035096;28;20029;-67
2020/12/11 02:44:05;;;;;;;33.20;19.17;;;-3.30;98.00;;;;;;5052039;28;20033;-69
2020/12/11 02:46:31;;;;;;;30.80;19.02;;;-3.30;98.00;;;;;;5036292;28;20404;-69
2020/12/11 02:48:57;;;;;;;28.95;19.02;;;-3.10;98.00;;;;;;5037644;28;20388;-69
2020/12/11 02:51:23;;;;;;;32.70;19.70;;;-3.00;98.00;;;;;;5035251;28;20034;-70
2020/12/11 02:53:50;;;;;;;34.35;22.25;;;-2.90;98.00;;;;;;5038803;28;20705;-70
2020/12/11 02:56:24;;;;;;;31.83;20.65;;;-2.80;98.00;;;;;;5038277;28;20056;-70
2020/12/11 02:58:50;;;;;;;30.85;19.75;;;-2.60;98.00;;;;;;5046648;28;20032;-70
2020/12/11 03:01:16;;;;;;;31.33;19.45;;;-2.40;98.00;;;;;;5051046;28;20425;-70
2020/12/11 03:03:42;;;;;;;27.85;18.77;;;-2.30;98.00;;;;;;5055864;28;20078;-69
2020/12/11 03:06:08;;;;;;;26.60;18.60;;;-2.30;98.00;;;;;;5052142;28;20472;-69
2020/12/11 03:08:35;;;;;;;24.15;16.17;;;-2.10;98.00;;;;;;5057821;28;20435;-70
2020/12/11 03:11:01;;;;;;;24.40;16.88;;;-2.10;98.00;;;;;;5045601;28;20436;-70
2020/12/11 03:13:26;;;;;;;23.90;17.02;;;-1.90;98.00;;;;;;5038894;28;20025;-70
2020/12/11 03:15:52;;;;;;;22.77;15.90;;;-1.90;98.00;;;;;;5043225;28;20035;-70
2020/12/11 03:18:18;;;;;;;23.85;16.23;;;-1.80;98.00;;;;;;5037731;28;20410;-70
2020/12/11 03:20:43;;;;;;;23.17;16.08;;;-1.90;98.00;;;;;;5040044;28;20088;-70
2020/12/11 03:23:09;;;;;;;28.38;17.02;;;-1.90;98.00;;;;;;5041398;28;20108;-69
2020/12/11 03:25:35;;;;;;;23.63;15.73;;;-1.90;98.00;;;;;;5040286;28;20033;-69
2020/12/11 03:28:00;;;;;;;24.48;16.40;;;-1.90;98.00;;;;;;5040778;28;20021;-70
2020/12/11 03:30:27;;;;;;;22.63;15.80;;;-2.00;98.00;;;;;;5054389;28;20384;-70
2020/12/11 03:32:53;;;;;;;25.77;16.80;;;-2.00;98.00;;;;;;5047673;28;20322;-69
2020/12/11 03:35:18;;;;;;;23.08;16.38;;;-2.20;98.00;;;;;;5048126;28;20059;-69
2020/12/11 03:37:44;;;;;;;25.67;17.80;;;-2.30;98.00;;;;;;5050599;28;20022;-68
2020/12/11 03:40:10;;;;;;;24.70;17.23;;;-2.30;98.00;;;;;;5042435;28;20029;-68
2020/12/11 03:42:35;;;;;;;28.20;17.83;;;-2.50;98.00;;;;;;5051724;28;20021;-68
2020/12/11 03:45:01;;;;;;;25.92;17.00;;;-2.50;98.00;;;;;;5054538;28;20061;-67
2020/12/11 03:47:30;;;;;;;24.05;16.48;;;-2.60;98.00;;;;;;5027551;28;20128;-70
2020/12/11 03:49:57;;;;;;;24.08;16.63;;;-2.80;98.00;;;;;;5027725;28;20033;-70
2020/12/11 03:52:22;;;;;;;25.85;17.02;;;-2.90;98.00;;;;;;5028101;28;20034;-70
2020/12/11 03:54:54;;;;;;;31.30;18.63;;;-2.90;98.00;;;;;;5029626;28;20092;-69
2020/12/11 03:57:23;;;;;;;25.73;17.80;;;-2.70;98.00;;;;;;5040957;28;20432;-69
2020/12/11 03:59:48;;;;;;;27.67;19.65;;;-2.50;98.00;;;;;;5043785;28;20389;-69
2020/12/11 04:02:15;;;;;;;26.85;17.35;;;-2.60;98.00;;;;;;5049831;28;20045;-70
2020/12/11 04:04:47;;;;;;;27.60;17.90;;;-2.60;98.00;;;;;;5071607;28;20025;-70
2020/12/11 04:07:13;;;;;;;29.73;19.58;;;-2.70;98.00;;;;;;5034172;28;20145;-69
2020/12/11 04:09:39;;;;;;;31.83;19.48;;;-2.70;98.00;;;;;;5037649;28;20040;-68
2020/12/11 04:12:05;;;;;;;30.30;18.45;;;-2.70;98.00;;;;;;5066716;28;20034;-69
2020/12/11 04:14:31;;;;;;;35.08;19.00;;;-2.70;98.00;;;;;;5045332;28;20044;-69
2020/12/11 04:17:00;;;;;;;30.17;17.90;;;-2.60;98.00;;;;;;5044758;28;20425;-69
2020/12/11 04:19:26;;;;;;;26.58;17.17;;;-2.50;98.00;;;;;;5038008;28;20104;-69
2020/12/11 04:21:53;;;;;;;26.17;17.60;;;-2.50;98.00;;;;;;5044500;28;20025;-69
2020/12/11 04:24:21;;;;;;;30.40;16.83;;;-2.50;98.00;;;;;;5034416;28;20033;-69
2020/12/11 04:26:47;;;;;;;27.90;17.42;;;-2.50;98.00;;;;;;5035427;28;20116;-70
2020/12/11 04:29:12;;;;;;;26.27;16.75;;;-2.50;98.00;;;;;;5035493;28;20029;-69
2020/12/11 04:31:38;;;;;;;24.98;15.70;;;-2.40;98.00;;;;;;5034886;28;20451;-70
2020/12/11 04:34:04;;;;;;;24.30;14.90;;;-2.30;98.00;;;;;;5035232;28;20021;-69
2020/12/11 04:36:30;;;;;;;21.58;14.10;;;-2.20;98.00;;;;;;5035590;28;20040;-70
2020/12/11 04:38:56;;;;;;;25.83;16.13;;;-2.20;98.00;;;;;;5035755;28;20313;-69
2020/12/11 04:41:26;;;;;;;24.55;15.57;;;-2.20;98.00;;;;;;5034559;28;20108;-69
2020/12/11 04:43:51;;;;;;;36.22;22.13;;;-2.30;98.00;;;;;;5034437;28;20053;-69
2020/12/11 04:46:17;;;;;;;24.92;14.80;;;-2.40;98.00;;;;;;5034325;28;20056;-69
2020/12/11 04:48:43;;;;;;;21.92;13.05;;;-2.40;98.00;;;;;;5035331;28;20425;-69
2020/12/11 04:51:09;;;;;;;20.60;14.45;;;-2.30;98.00;;;;;;5035148;28;20021;-69
2020/12/11 04:53:37;;;;;;;21.02;13.73;;;-2.20;98.00;;;;;;5035511;28;20414;-69
2020/12/11 04:56:05;;;;;;;23.85;13.63;;;-2.20;98.00;;;;;;5035231;28;20367;-70
2020/12/11 04:58:32;;;;;;;22.45;15.35;;;-2.20;98.00;;;;;;5035422;28;20454;-70
2020/12/11 05:01:04;;;;;;;26.17;15.57;;;-2.20;98.00;;;;;;5033834;28;20036;-70
2020/12/11 05:03:31;;;;;;;26.67;15.95;;;-2.20;98.00;;;;;;5034923;28;20021;-69
2020/12/11 05:05:57;;;;;;;22.90;15.07;;;-2.30;98.00;;;;;;5035200;28;20325;-69
2020/12/11 05:08:23;;;;;;;28.67;15.95;;;-2.40;98.00;;;;;;5033809;28;20128;-69
2020/12/11 05:10:50;;;;;;;22.25;15.10;;;-2.40;98.00;;;;;;5034409;28;20105;-69
2020/12/11 05:13:23;;;;;;;24.20;15.43;;;-2.50;98.00;;;;;;5035085;28;20022;-69
2020/12/11 05:16:08;;;;;;;22.45;14.95;;;-2.70;98.00;;;;;;5032961;28;20590;-69
2020/12/11 05:18:35;;;;;;;30.55;17.38;;;-2.80;98.00;;;;;;5033195;28;20306;-69
2020/12/11 05:21:21;;;;;;;28.15;17.80;;;-2.90;98.00;;;;;;5035170;28;20087;-69
2020/12/11 05:24:06;;;;;;;30.55;18.90;;;-3.00;98.00;;;;;;5034509;28;20079;-70
2020/12/11 05:26:35;;;;;;;32.97;20.90;;;-3.20;98.00;;;;;;5034217;28;20047;-68
2020/12/11 05:29:01;;;;;;;28.50;18.67;;;-3.30;98.00;;;;;;5034253;28;20113;-68
2020/12/11 05:31:27;;;;;;;28.23;18.67;;;-3.40;98.00;;;;;;5031486;28;20120;-69
2020/12/11 05:34:08;;;;;;;30.45;19.30;;;-3.60;98.00;;;;;;5030714;28;20097;-69
2020/12/11 05:36:50;;;;;;;32.38;18.00;;;-3.70;98.00;;;;;;5035088;28;20022;-69
2020/12/11 05:39:36;;;;;;;29.63;17.38;;;-3.90;98.00;;;;;;5030267;28;20033;-69
2020/12/11 05:42:09;;;;;;;45.50;20.58;;;-3.90;98.00;;;;;;5033878;28;20450;-70
2020/12/11 05:44:35;;;;;;;29.30;18.30;;;-4.00;98.00;;;;;;5034217;28;20029;-69
2020/12/11 05:47:17;;;;;;;33.88;20.17;;;-3.90;98.00;;;;;;5032492;28;20029;-69
2020/12/11 05:49:43;;;;;;;34.00;21.05;;;-3.80;98.00;;;;;;5033714;28;20044;-69
2020/12/11 05:52:17;;;;;;;32.42;20.05;;;-3.60;98.00;;;;;;5033825;28;20030;-70
2020/12/11 05:54:55;;;;;;;;;;;-3.50;98.00;;;;;;5033775;28;20433;-68
2020/12/11 05:57:26;;;;;;;29.35;17.92;;;-3.40;98.00;;;;;;5031743;28;19909;-69
2020/12/11 05:59:52;;;;;;;30.92;17.85;;;-3.20;98.00;;;;;;5033490;28;20430;-69
2020/12/11 06:02:18;;;;;;;27.42;17.13;;;-3.00;98.00;;;;;;5033046;28;20036;-69
2020/12/11 06:04:45;;;;;;;26.63;17.55;;;-2.90;98.00;;;;;;5045871;28;20033;-69
2020/12/11 06:07:13;;;;;;;41.17;23.20;;;-2.80;98.00;;;;;;5029456;28;20291;-69
2020/12/11 06:09:41;;;;;;;29.90;18.83;;;-2.70;98.00;;;;;;5034212;28;20025;-69
2020/12/11 06:12:08;;;;;;;27.33;17.40;;;-2.60;98.00;;;;;;5039209;28;20360;-69
2020/12/11 06:14:40;;;;;;;29.95;18.13;;;-2.60;98.00;;;;;;5054817;28;20025;-69
2020/12/11 06:17:09;;;;;;;25.67;17.05;;;-2.60;98.00;;;;;;5046162;28;20322;-69
2020/12/11 06:19:39;;;;;;;33.65;20.45;;;-2.60;98.00;;;;;;5034540;28;20038;-69
2020/12/11 06:22:07;;;;;;;31.42;18.77;;;-2.70;98.00;;;;;;5034603;28;20104;-69
2020/12/11 06:24:36;;;;;;;23.58;15.82;;;-2.70;98.00;;;;;;5034659;28;20039;-68
2020/12/11 06:27:03;;;;;;;29.02;17.38;;;-2.60;98.00;;;;;;5034390;28;20029;-69
2020/12/11 06:29:34;;;;;;;26.73;16.30;;;-2.70;98.00;;;;;;5034139;28;20029;-69
2020/12/11 06:32:00;;;;;;;24.77;15.35;;;-2.70;98.00;;;;;;5036931;28;20048;-70
2020/12/11 06:34:27;;;;;;;20.95;14.15;;;-2.60;98.00;;;;;;5038414;28;20025;-69
2020/12/11 06:36:54;;;;;;;23.55;15.07;;;-2.40;98.00;;;;;;5037658;28;20116;-69
2020/12/11 06:39:43;;;;;;;22.95;13.88;;;-2.40;98.00;;;;;;5037945;28;20034;-70
2020/12/11 06:42:33;;;;;;;23.45;14.07;;;-2.30;98.00;;;;;;5038220;28;20053;-69
2020/12/11 06:45:17;;;;;;;25.65;14.90;;;-2.50;98.00;;;;;;5035059;28;20044;-69
2020/12/11 06:47:53;;;;;;;21.05;14.07;;;-2.60;98.00;;;;;;5035715;28;20041;-69
2020/12/11 06:50:20;;;;;;;23.13;13.75;;;-2.60;98.00;;;;;;5037790;28;20057;-69
2020/12/11 06:52:46;;;;;;;22.92;13.63;;;-2.50;98.00;;;;;;5037992;28;20029;-69
2020/12/11 06:55:12;;;;;;;20.27;13.40;;;-2.40;98.00;;;;;;5037754;28;20021;-69
2020/12/11 06:57:40;;;;;;;22.50;13.73;;;-2.30;98.00;;;;;;5037712;28;20033;-69
2020/12/11 07:00:27;;;;;;;22.30;14.57;;;-2.20;98.00;;;;;;5037555;28;20055;-69
2020/12/11 07:03:18;;;;;;;23.10;13.68;;;-2.10;98.00;;;;;;5036806;28;20025;-69
2020/12/11 07:05:45;;;;;;;26.35;14.48;;;-2.10;98.00;;;;;;5036871;28;20418;-69
2020/12/11 07:08:14;;;;;;;25.33;15.25;;;-2.00;98.00;;;;;;5037713;28;20057;-69
2020/12/11 07:10:41;;;;;;;20.83;14.05;;;-2.00;98.00;;;;;;5037432;28;20032;-68
2020/12/11 07:13:10;;;;;;;22.48;14.90;;;-1.90;98.00;;;;;;5037652;28;20018;-67
2020/12/11 07:15:39;;;;;;;24.15;14.70;;;-1.80;98.00;;;;;;5036939;28;20406;-68
2020/12/11 07:18:13;;;;;;;24.52;15.68;;;-1.80;98.00;;;;;;5037653;28;20026;-67
2020/12/11 07:20:43;;;;;;;27.00;16.20;;;-1.80;98.00;;;;;;5037159;28;20078;-67
2020/12/11 07:23:10;;;;;;;24.65;15.15;;;-1.90;98.00;;;;;;5036159;28;20495;-70
2020/12/11 07:25:35;;;;;;;24.40;15.50;;;-1.80;98.00;;;;;;5036830;28;20032;-69
2020/12/11 07:28:05;;;;;;;23.55;13.98;;;-1.80;98.00;;;;;;5037108;28;20422;-69
2020/12/11 07:30:31;;;;;;;23.48;14.18;;;-1.70;98.00;;;;;;5037540;28;20026;-70
2020/12/11 07:32:56;;;;;;;23.00;13.85;;;-1.70;98.00;;;;;;5034507;28;20036;-69
2020/12/11 07:35:23;;;;;;;24.08;12.85;;;-1.70;98.00;;;;;;5037406;28;20036;-69
2020/12/11 07:37:53;;;;;;;21.20;13.48;;;-1.60;98.00;;;;;;5037248;28;20018;-69
2020/12/11 07:40:20;;;;;;;21.17;13.70;;;-1.40;98.00;;;;;;5037298;28;20028;-69
2020/12/11 07:42:47;;;;;;;21.73;14.02;;;-1.40;98.00;;;;;;5036938;28;20357;-69
2020/12/11 07:45:26;;;;;;;24.98;14.13;;;-1.40;98.00;;;;;;5037555;28;20507;-69
2020/12/11 07:47:53;;;;;;;17.15;11.02;;;-1.40;98.00;;;;;;5034554;28;20335;-69
2020/12/11 07:50:25;;;;;;;18.95;12.35;;;-1.30;98.00;;;;;;5037173;28;20032;-69
2020/12/11 07:52:58;;;;;;;18.48;12.60;;;-1.20;98.00;;;;;;5036479;28;20036;-69
2020/12/11 07:55:28;;;;;;;18.70;12.13;;;-1.10;98.00;;;;;;5036888;28;20125;-69
2020/12/11 07:57:58;;;;;;;17.40;11.57;;;-1.00;98.00;;;;;;5035902;28;20056;-69
2020/12/11 08:00:26;;;;;;;16.98;11.32;;;-0.90;98.00;;;;;;5036922;28;20028;-70
2020/12/11 08:02:56;;;;;;;18.05;10.90;;;-0.80;98.00;;;;;;5034681;28;20032;-69
2020/12/11 08:05:25;;;;;;;17.80;11.48;;;-0.70;98.00;;;;;;5036449;28;20059;-69
2020/12/11 08:07:53;;;;;;;22.85;15.20;;;-0.60;98.00;;;;;;5036795;28;20321;-70
2020/12/11 08:10:26;;;;;;;18.92;13.20;;;-0.60;98.00;;;;;;5036401;28;20029;-69
2020/12/11 08:12:53;;;;;;;26.63;15.98;;;-0.50;98.00;;;;;;5036817;28;20075;-70
2020/12/11 08:15:35;;;;;;;22.80;14.15;;;-0.50;98.00;;;;;;5036371;28;20256;-69
2020/12/11 08:18:25;;;;;;;16.10;11.10;;;-0.50;98.00;;;;;;5036286;28;20479;-69
2020/12/11 08:20:53;;;;;;;17.55;8.90;;;-0.40;98.00;;;;;;5033863;28;20104;-69
2020/12/11 08:23:20;;;;;;;12.77;9.32;;;-0.20;98.00;;;;;;5030805;28;20030;-69
2020/12/11 08:25:46;;;;;;;13.60;7.80;;;0.20;98.00;;;;;;5031008;28;20021;-69
2020/12/11 08:28:13;;;;;;;14.02;8.63;;;0.60;98.00;;;;;;5031677;28;20040;-69
2020/12/11 08:30:39;;;;;;;13.45;8.98;;;0.80;97.90;;;;;;5030221;28;20060;-69
2020/12/11 08:33:12;;;;;;;12.25;7.95;;;0.70;97.60;;;;;;5033009;28;20053;-70
2020/12/11 08:35:38;;;;;;;13.30;7.68;;;0.70;97.60;;;;;;5029811;28;20144;-68
2020/12/11 08:38:10;;;;;;;12.10;7.80;;;1.00;97.50;;;;;;5030655;28;20426;-70
2020/12/11 08:40:49;;;;;;;13.15;7.18;;;1.70;96.10;;;;;;5030066;28;20034;-70
2020/12/11 08:49:04;;;;;;;12.02;7.85;;;3.00;90.40;;;;;;5032625;28;20052;-69
2020/12/11 08:51:30;;;;;;;16.17;7.15;;;2.80;90.40;;;;;;5033533;28;20160;-68
2020/12/11 08:53:56;;;;;;;11.73;7.78;;;2.40;91.00;;;;;;5034222;28;20017;-68
2020/12/11 08:56:24;;;;;;;12.65;8.15;;;2.00;92.40;;;;;;5034128;28;20053;-69
2020/12/11 08:58:49;;;;;;;10.38;6.75;;;1.90;93.20;;;;;;5035820;28;20456;-67
2020/12/11 09:01:15;;;;;;;11.00;7.28;;;2.10;93.20;;;;;;5033600;28;20104;-69
2020/12/11 09:03:40;;;;;;;11.25;7.03;;;2.10;92.60;;;;;;5035424;28;20033;-69
2020/12/11 09:06:06;;;;;;;14.65;9.50;;;2.20;92.30;;;;;;5035580;28;20060;-70
2020/12/11 09:08:32;;;;;;;17.30;11.00;;;2.30;92.00;;;;;;5035274;28;20030;-69
2020/12/11 09:10:58;;;;;;;19.45;12.68;;;2.10;92.10;;;;;;5035250;28;20029;-69
2020/12/11 09:13:23;;;;;;;18.63;11.82;;;2.10;91.90;;;;;;5035741;28;20116;-69
2020/12/11 09:15:49;;;;;;;19.45;12.05;;;2.00;91.80;;;;;;5033765;28;20294;-69
2020/12/11 09:18:14;;;;;;;19.15;12.55;;;2.60;91.50;;;;;;5034491;28;20036;-69
2020/12/11 09:20:40;;;;;;;23.50;13.35;;;4.00;88.50;;;;;;5034552;28;20087;-69
2020/12/11 09:23:06;;;;;;;20.55;14.02;;;4.90;83.50;;;;;;5033860;28;20083;-70
2020/12/11 09:25:31;;;;;;;24.70;16.25;;;5.00;81.40;;;;;;5034855;28;20105;-69
2020/12/11 09:27:57;;;;;;;31.45;18.63;;;4.70;81.90;;;;;;5035373;28;20355;-69
2020/12/11 09:35:27;;;;;;;22.92;14.52;;;4.50;83.20;;;;;;5035522;28;20545;-70
2020/12/11 09:37:55;;;;;;;20.60;14.05;;;4.80;82.60;;;;;;5031242;28;20052;-69
2020/12/11 09:40:26;;;;;;;20.67;14.07;;;4.70;82.60;;;;;;5032005;28;20060;-70
2020/12/11 09:43:25;;;;;;;21.55;14.95;;;5.00;83.40;;;;;;5035119;28;20065;-70
2020/12/11 09:45:50;;;;;;;18.17;12.40;;;5.50;82.10;;;;;;5031461;28;20441;-68
2020/12/11 09:48:22;;;;;;;18.92;13.35;;;5.30;81.30;;;;;;5033112;28;20239;-69
2020/12/11 09:51:01;;;;;;;24.70;12.88;;;5.10;82.10;;;;;;5035037;28;20030;-69
2020/12/11 09:54:02;;;;;;;17.92;11.18;;;4.00;84.40;;;;;;5034884;28;20037;-69
2020/12/11 09:56:31;;;;;;;14.50;8.00;;;3.60;88.20;;;;;;5032901;28;20029;-69
2020/12/11 09:59:08;;;;;;;6.97;4.25;;;3.50;89.70;;;;;;5034649;28;20038;-70
2020/12/11 10:04:11;;;;;;;8.80;4.72;;;4.10;89.00;;;;;;5034447;28;20490;-68
2020/12/11 10:06:37;;;;;;;6.93;4.18;;;4.40;88.20;;;;;;5037358;28;20112;-68
2020/12/11 10:09:03;;;;;;;8.00;4.90;;;4.30;87.70;;;;;;5038513;28;20417;-66
2020/12/11 10:11:29;;;;;;;8.45;5.25;;;4.30;88.40;;;;;;5037797;28;20033;-67
2020/12/11 10:14:20;;;;;;;8.35;5.18;;;4.30;87.90;;;;;;5038762;28;20027;-67
2020/12/11 10:16:51;;;;;;;12.20;6.00;;;4.60;88.10;;;;;;5018262;28;20018;-67
2020/12/11 10:19:17;;;;;;;12.25;6.10;;;5.30;86.40;;;;;;5038137;28;20025;-69
2020/12/11 10:21:51;;;;;;;9.68;6.20;;;5.80;84.80;;;;;;5038391;28;20037;-69
2020/12/11 10:24:18;;;;;;;10.65;5.47;;;5.90;84.40;;;;;;5038471;28;20438;-68
2020/12/11 10:26:44;;;;;;;8.15;4.63;;;5.80;84.50;;;;;;5037865;28;20038;-68
2020/12/11 10:29:11;;;;;;;6.93;3.92;;;5.70;85.20;;;;;;5038268;28;20025;-69
2020/12/11 10:31:41;;;;;;;6.43;3.95;;;6.00;83.80;;;;;;5036596;28;20033;-69
2020/12/11 10:34:11;;;;;;;8.07;5.13;;;6.30;83.50;;;;;;5037692;28;20479;-68
2020/12/11 10:36:37;;;;;;;10.10;5.63;;;6.40;83.10;;;;;;5038090;28;20040;-68
2020/12/11 10:39:04;;;;;;;8.80;5.30;;;6.00;84.20;;;;;;5038028;28;20436;-67
2020/12/11 10:41:29;;;;;;;8.88;5.40;;;5.60;83.70;;;;;;5038338;28;20025;-68
2020/12/11 10:43:55;;;;;;;8.13;4.97;;;5.40;84.20;;;;;;5038007;28;20048;-67
2020/12/11 10:46:21;;;;;;;9.77;6.03;;;5.00;84.40;;;;;;5036934;28;20041;-67
2020/12/11 10:48:47;;;;;;;16.88;7.05;;;4.70;85.90;;;;;;5037622;28;20045;-68
2020/12/11 10:51:13;;;;;;;8.20;5.45;;;4.50;87.20;;;;;;5036370;28;20036;-68
2020/12/11 10:53:41;;;;;;;10.35;6.90;;;4.20;87.40;;;;;;5037484;28;20421;-69
2020/12/11 10:56:08;;;;;;;10.90;7.10;;;4.20;88.00;;;;;;5037787;28;20052;-68
2020/12/11 10:58:34;;;;;;;12.27;6.60;;;5.20;87.90;;;;;;5037988;28;20040;-67
2020/12/11 11:01:03;;;;;;;10.77;5.70;;;7.00;83.50;;;;;;5036664;28;20087;-67
2020/12/11 11:03:30;;;;;;;10.02;6.05;;;7.80;78.70;;;;;;5037925;28;20037;-68
2020/12/11 11:06:00;;;;;;;10.73;5.40;;;7.70;78.00;;;;;;5037923;28;20029;-68
2020/12/11 11:08:35;;;;;;;9.45;5.82;;;8.40;77.50;;;;;;5037987;28;20048;-68
2020/12/11 11:11:02;;;;;;;9.20;5.13;;;8.10;75.50;;;;;;5037993;28;20121;-68
2020/12/11 11:13:42;;;;;;;9.48;5.15;;;7.80;75.40;;;;;;5037662;28;20029;-68
2020/12/11 11:16:08;;;;;;;9.27;5.97;;;6.30;78.80;;;;;;5035897;28;20116;-68
2020/12/11 11:18:49;;;;;;;9.13;5.55;;;5.40;81.00;;;;;;5037407;28;20108;-67
2020/12/11 11:26:56;;;;;;;8.80;4.55;;;4.70;83.10;;;;;;5037437;28;20441;-67
2020/12/11 11:29:11;;;;;;;8.60;4.63;;;4.70;84.40;;;;;;5036462;28;20049;-67
2020/12/11 11:31:38;;;;;;;8.30;5.20;;;4.50;84.10;;;;;;5036432;28;20437;-68
2020/12/11 11:34:05;;;;;;;9.75;6.15;;;4.30;85.50;;;;;;5037185;28;20114;-68
2020/12/11 11:36:32;;;;;;;9.43;5.65;;;4.00;85.50;;;;;;5037279;28;20453;-68
2020/12/11 11:38:57;;;;;;;9.55;5.93;;;3.80;86.60;;;;;;5037384;28;20322;-67
2020/12/11 11:46:39;;;;;;;8.98;5.75;;;3.80;85.90;;;;;;5035843;28;20040;-68
2020/12/11 11:49:05;;;;;;;7.35;4.40;;;3.60;85.70;;;;;;5036962;28;20041;-67
2020/12/11 11:51:40;;;;;;;7.57;4.70;;;3.60;85.30;;;;;;5036276;28;20068;-68
2020/12/11 11:54:05;;;;;;;6.45;3.83;;;3.80;84.80;;;;;;5036883;28;20026;-67
2020/12/11 11:56:31;;;;;;;6.25;3.67;;;3.90;83.80;;;;;;5036221;28;20025;-68
2020/12/11 11:58:57;;;;;;;7.05;3.67;;;4.00;83.20;;;;;;5037092;28;20036;-68
2020/12/11 12:01:22;;;;;;;5.40;3.13;;;4.10;83.40;;;;;;5035896;28;20029;-67
2020/12/11 12:03:48;;;;;;;5.35;3.10;;;4.20;83.10;;;;;;5036724;28;20026;-67
2020/12/11 12:06:22;;;;;;;5.60;3.15;;;4.30;82.60;;;;;;5036808;28;20033;-68
2020/12/11 12:08:47;;;;;;;5.82;3.72;;;4.30;82.90;;;;;;5017335;28;20049;-68
2020/12/11 12:11:13;;;;;;;6.32;3.33;;;4.20;82.40;;;;;;5022644;28;20037;-68
2020/12/11 12:13:38;;;;;;;6.93;3.83;;;4.20;82.70;;;;;;5035871;28;20493;-68
2020/12/11 12:16:04;;;;;;;5.65;3.25;;;4.30;84.00;;;;;;5034842;28;20456;-67
2020/12/11 12:18:30;;;;;;;6.18;3.30;;;4.50;83.40;;;;;;5036059;28;20033;-68
2020/12/11 12:21:04;;;;;;;5.63;3.58;;;4.90;83.60;;;;;;5036257;28;20022;-68
2020/12/11 12:31:12;;;;;;;9.43;5.20;;;4.70;85.10;;;;;;5020631;28;20036;-68
2020/12/11 12:34:14;;;;;;;7.05;4.43;;;4.50;86.20;;;;;;5025127;28;20029;-67
2020/12/11 12:44:50;;;;;;;7.88;4.95;;;3.90;88.00;;;;;;5033491;28;20058;-68
2020/12/11 12:47:15;;;;;;;8.20;5.20;;;3.80;88.00;;;;;;5016328;28;20091;-68
2020/12/11 12:49:41;;;;;;;8.63;4.95;;;3.80;87.70;;;;;;5033364;28;20034;-69
2020/12/11 12:52:07;;;;;;;7.88;4.38;;;3.70;87.50;;;;;;5036516;28;20104;-68
2020/12/11 12:54:32;;;;;;;9.13;4.53;;;3.70;87.40;;;;;;5018480;28;20029;-68
2020/12/11 12:57:04;;;;;;;6.05;3.60;;;3.70;88.00;;;;;;5035862;28;20104;-66
2020/12/11 13:04:57;;;;;;;5.03;3.28;;;3.90;86.20;;;;;;5035604;28;20337;-67
2020/12/11 13:07:23;;;;;;;6.50;3.88;;;4.00;86.20;;;;;;5035433;28;20061;-66
2020/12/11 13:09:49;;;;;;;6.43;4.25;;;4.10;86.10;;;;;;5034966;28;20669;-67
2020/12/11 13:12:14;;;;;;;5.55;3.45;;;4.20;85.80;;;;;;5035446;28;20021;-67
2020/12/11 13:14:40;;;;;;;5.55;3.03;;;4.30;83.60;;;;;;5035095;28;20021;-68
2020/12/11 13:17:06;;;;;;;4.53;2.58;;;4.50;84.10;;;;;;5034432;28;20026;-68
2020/12/11 13:19:33;;;;;;;5.03;3.35;;;4.40;81.90;;;;;;5033806;28;20033;-68
2020/12/11 13:22:28;;;;;;;5.00;2.75;;;4.50;82.70;;;;;;5035221;28;20076;-69
2020/12/11 13:27:42;;;;;;;4.65;2.67;;;4.70;81.90;;;;;;5024205;28;20025;-68
2020/12/11 13:30:08;;;;;;;5.45;2.78;;;4.50;81.40;;;;;;5034145;28;20099;-68